createdAt,value
2023-02-16T00:02:07.503Z,5.00
2023-02-16T00:04:40.414Z,5.10
2023-02-16T00:07:10.690Z,5.00
2023-02-16T00:09:43.866Z,5.00
2023-02-16T00:12:38.097Z,4.90
2023-02-16T00:15:19.285Z,4.80
2023-02-16T00:17:50.759Z,4.80
2023-02-16T00:20:24.606Z,4.70
2023-02-16T00:22:55.749Z,4.60
2023-02-16T00:25:27.282Z,4.50
2023-02-16T00:27:58.279Z,4.60
2023-02-16T00:30:30.193Z,4.50
2023-02-16T00:33:02.636Z,4.50
2023-02-16T00:35:35.148Z,4.50
2023-02-16T00:38:05.748Z,4.40
2023-02-16T00:40:38.477Z,4.40
2023-02-16T00:43:10.937Z,4.40
2023-02-16T00:45:42.124Z,4.50
2023-02-16T00:48:14.793Z,4.50
2023-02-16T00:50:50.066Z,4.60
2023-02-16T00:53:21.398Z,4.60
2023-02-16T00:55:52.839Z,4.70
2023-02-16T00:58:28.982Z,5.00
2023-02-16T01:01:06.299Z,5.20
2023-02-16T01:03:38.491Z,5.50
2023-02-16T01:06:30.953Z,5.80
2023-02-16T01:09:32.071Z,6.20
2023-02-16T01:12:05.657Z,6.70
2023-02-16T01:14:37.382Z,7.10
2023-02-16T01:17:10.467Z,7.50
2023-02-16T01:19:42.270Z,7.80
2023-02-16T01:22:16.782Z,7.90
2023-02-16T01:24:49.646Z,8.10
2023-02-16T01:27:24.629Z,8.20
2023-02-16T01:29:56.097Z,8.20
2023-02-16T01:32:28.046Z,8.20
2023-02-16T01:35:01.431Z,8.20
2023-02-16T01:37:35.116Z,8.10
2023-02-16T01:40:07.769Z,8.00
2023-02-16T01:42:47.715Z,7.90
2023-02-16T01:45:22.348Z,7.90
2023-02-16T01:47:58.005Z,7.60
2023-02-16T01:50:39.153Z,7.40
2023-02-16T01:53:20.642Z,7.20
2023-02-16T01:55:57.926Z,6.90
2023-02-16T01:58:37.960Z,6.70
2023-02-16T02:01:44.488Z,6.60
2023-02-16T02:04:45.798Z,6.50
2023-02-16T02:07:25.070Z,6.40
2023-02-16T02:10:03.626Z,6.40
2023-02-16T02:12:44.853Z,6.30
2023-02-16T02:15:19.083Z,6.50
2023-02-16T02:17:52.063Z,6.70
2023-02-16T02:20:52.650Z,7.10
2023-02-16T02:23:42.051Z,7.40
2023-02-16T02:26:47.375Z,7.70
2023-02-16T02:29:50.646Z,8.10
2023-02-16T02:32:33.994Z,8.20
2023-02-16T02:35:14.551Z,8.20
2023-02-16T02:37:59.351Z,8.20
2023-02-16T02:40:40.207Z,8.10
2023-02-16T02:43:16.676Z,8.00
2023-02-16T02:45:55.635Z,7.80
2023-02-16T02:48:26.470Z,7.70
2023-02-16T02:51:17.202Z,7.60
2023-02-16T02:53:51.117Z,7.60
2023-02-16T02:56:39.126Z,7.60
2023-02-16T02:59:29.834Z,7.60
2023-02-16T03:02:05.533Z,7.50
2023-02-16T03:04:37.512Z,7.50
2023-02-16T03:07:09.813Z,7.50
2023-02-16T03:09:42.110Z,7.50
2023-02-16T03:12:32.021Z,7.40
2023-02-16T03:15:04.399Z,7.30
2023-02-16T03:17:56.393Z,7.30
2023-02-16T03:20:43.579Z,7.20
2023-02-16T03:23:32.158Z,7.00
2023-02-16T03:26:20.396Z,7.00
2023-02-16T03:29:09.666Z,7.00
2023-02-16T03:31:43.598Z,6.90
2023-02-16T03:34:17.334Z,6.90
2023-02-16T03:36:51.316Z,6.90
2023-02-16T03:39:22.781Z,6.90
2023-02-16T03:41:55.722Z,6.90
2023-02-16T03:44:26.709Z,6.80
2023-02-16T03:46:57.022Z,6.70
2023-02-16T03:49:28.725Z,6.80
2023-02-16T03:51:58.813Z,6.80
2023-02-16T03:54:28.815Z,6.80
2023-02-16T03:56:59.063Z,6.70
2023-02-16T03:59:29.393Z,6.70
2023-02-16T04:02:00.136Z,6.60
2023-02-16T04:04:32.442Z,6.60
2023-02-16T04:07:02.777Z,6.50
2023-02-16T04:09:33.024Z,6.40
2023-02-16T04:12:20.201Z,6.30
2023-02-16T04:14:50.214Z,6.20
2023-02-16T04:17:20.420Z,6.10
2023-02-16T04:19:52.252Z,6.00
2023-02-16T04:22:22.333Z,6.00
2023-02-16T04:24:52.677Z,5.90
2023-02-16T04:27:22.977Z,6.00
2023-02-16T04:29:53.086Z,6.00
2023-02-16T04:32:23.272Z,6.00
2023-02-16T04:34:55.041Z,6.10
2023-02-16T04:37:25.235Z,6.20
2023-02-16T04:39:55.734Z,6.20
2023-02-16T04:42:26.090Z,6.10
2023-02-16T04:44:56.208Z,6.00
2023-02-16T04:47:27.378Z,5.90
2023-02-16T04:49:59.056Z,5.80
2023-02-16T04:52:29.149Z,5.70
2023-02-16T04:54:59.200Z,5.70
2023-02-16T04:57:29.332Z,5.60
2023-02-16T04:59:59.372Z,5.50
2023-02-16T05:02:29.679Z,5.40
2023-02-16T05:05:01.320Z,5.40
2023-02-16T05:07:31.804Z,5.40
2023-02-16T05:10:02.133Z,5.40
2023-02-16T05:12:49.508Z,5.40
2023-02-16T05:15:20.465Z,5.40
2023-02-16T05:17:50.518Z,5.40
2023-02-16T05:20:42.462Z,5.40
2023-02-16T05:23:12.621Z,5.40
2023-02-16T05:25:42.778Z,5.30
2023-02-16T05:28:12.902Z,5.30
2023-02-16T05:30:43.124Z,5.40
2023-02-16T05:33:13.493Z,5.50
2023-02-16T05:35:45.369Z,5.50
2023-02-16T05:38:15.473Z,5.40
2023-02-16T05:40:45.986Z,5.40
2023-02-16T05:43:16.249Z,5.40
2023-02-16T05:45:46.856Z,5.40
2023-02-16T05:48:17.109Z,5.30
2023-02-16T05:50:49.164Z,5.30
2023-02-16T05:53:19.250Z,5.30
2023-02-16T05:55:49.278Z,5.30
2023-02-16T05:58:19.366Z,5.30
2023-02-16T06:00:50.155Z,5.30
2023-02-16T06:03:20.337Z,5.20
2023-02-16T06:05:56.553Z,5.20
2023-02-16T06:08:27.258Z,5.20
2023-02-16T06:10:57.896Z,5.10
2023-02-16T06:13:29.016Z,5.20
2023-02-16T06:15:59.762Z,5.20
2023-02-16T06:18:30.161Z,5.30
2023-02-16T06:21:02.261Z,5.30
2023-02-16T06:23:32.513Z,5.30
2023-02-16T06:26:02.613Z,5.30
2023-02-16T06:28:32.750Z,5.20
2023-02-16T06:31:03.133Z,5.20
2023-02-16T06:33:33.411Z,5.20
2023-02-16T06:36:05.246Z,5.20
2023-02-16T06:38:35.356Z,5.20
2023-02-16T06:41:05.698Z,5.20
2023-02-16T06:43:36.041Z,5.20
2023-02-16T06:46:06.520Z,5.20
2023-02-16T06:48:36.827Z,5.20
2023-02-16T06:51:09.129Z,5.20
2023-02-16T06:53:39.194Z,5.10
2023-02-16T06:56:09.640Z,5.10
2023-02-16T06:58:39.727Z,5.10
2023-02-16T07:01:09.829Z,5.10
2023-02-16T07:03:40.758Z,5.10
2023-02-16T07:06:12.679Z,5.10
2023-02-16T07:08:42.741Z,5.20
2023-02-16T07:11:12.946Z,5.20
2023-02-16T07:13:43.386Z,5.20
2023-02-16T07:16:13.755Z,5.20
2023-02-16T07:18:43.981Z,5.20
2023-02-16T07:21:15.910Z,5.20
2023-02-16T07:23:46.385Z,5.20
2023-02-16T07:26:16.465Z,5.10
2023-02-16T07:28:46.574Z,5.10
2023-02-16T07:31:18.512Z,5.00
2023-02-16T07:33:48.700Z,5.00
2023-02-16T07:36:20.406Z,5.00
2023-02-16T07:38:50.465Z,5.00
2023-02-16T07:41:20.753Z,5.00
2023-02-16T07:43:50.907Z,4.90
2023-02-16T07:46:21.208Z,4.90
2023-02-16T07:48:51.728Z,4.80
2023-02-16T07:51:27.540Z,4.80
2023-02-16T07:53:58.232Z,4.80
2023-02-16T07:56:30.627Z,4.80
2023-02-16T07:59:02.750Z,4.80
2023-02-16T08:01:33.814Z,4.80
2023-02-16T08:04:04.026Z,4.80
2023-02-16T08:06:37.376Z,4.80
2023-02-16T08:09:07.769Z,4.70
2023-02-16T08:11:38.007Z,4.70
2023-02-16T08:14:08.372Z,4.70
2023-02-16T08:16:38.605Z,4.80
2023-02-16T08:19:10.716Z,4.80
2023-02-16T08:21:42.584Z,4.80
2023-02-16T08:24:15.390Z,4.80
2023-02-16T08:26:45.765Z,4.80
2023-02-16T08:29:15.946Z,4.80
2023-02-16T08:31:46.855Z,4.80
2023-02-16T08:34:19.106Z,4.80
2023-02-16T08:36:56.995Z,4.80
2023-02-16T08:39:28.520Z,4.80
2023-02-16T08:41:58.804Z,4.90
2023-02-16T08:44:29.858Z,4.90
2023-02-16T08:47:02.044Z,5.00
2023-02-16T08:49:32.242Z,4.90
2023-02-16T08:52:04.834Z,5.00
2023-02-16T08:54:35.263Z,5.10
2023-02-16T08:57:05.811Z,5.10
2023-02-16T08:59:36.048Z,5.10
2023-02-16T09:02:06.315Z,5.00
2023-02-16T09:04:37.588Z,4.90
2023-02-16T09:07:09.331Z,4.80
2023-02-16T09:09:41.777Z,4.60
2023-02-16T09:12:12.820Z,4.40
2023-02-16T09:14:43.163Z,4.20
2023-02-16T09:17:13.237Z,4.20
2023-02-16T09:19:44.501Z,4.10
2023-02-16T09:22:16.742Z,4.00
2023-02-16T09:24:46.861Z,3.90
2023-02-16T09:27:17.060Z,3.90
2023-02-16T09:29:47.146Z,4.00
2023-02-16T09:32:17.875Z,4.00
2023-02-16T09:34:50.765Z,4.10
2023-02-16T09:37:22.402Z,4.20
2023-02-16T09:39:52.654Z,4.20
2023-02-16T09:42:30.480Z,4.30
2023-02-16T09:45:08.189Z,4.20
2023-02-16T09:47:41.409Z,4.20
2023-02-16T09:50:27.684Z,4.20
2023-02-16T09:53:09.221Z,4.20
2023-02-16T09:55:47.262Z,4.20
2023-02-16T09:58:23.108Z,4.20
2023-02-16T10:00:56.511Z,4.20
2023-02-16T10:03:40.560Z,4.20
2023-02-16T10:06:30.106Z,4.20
2023-02-16T10:09:05.597Z,4.10
2023-02-16T10:11:49.387Z,4.00
2023-02-16T10:14:30.838Z,3.90
2023-02-16T10:17:08.458Z,3.90
2023-02-16T10:19:43.489Z,3.90
2023-02-16T10:22:19.125Z,4.00
2023-02-16T10:25:02.961Z,3.90
2023-02-16T10:27:41.120Z,4.00
2023-02-16T10:30:17.222Z,3.90
2023-02-16T10:32:57.359Z,3.90
2023-02-16T10:35:37.934Z,3.90
2023-02-16T10:38:14.983Z,3.90
2023-02-16T10:40:56.327Z,3.90
2023-02-16T10:43:38.151Z,4.00
2023-02-16T10:46:09.956Z,4.10
2023-02-16T10:48:40.789Z,4.10
2023-02-16T10:51:13.247Z,4.10
2023-02-16T10:53:47.215Z,4.00
2023-02-16T10:56:53.020Z,4.00
2023-02-16T10:59:25.299Z,3.90
2023-02-16T11:01:58.018Z,3.80
2023-02-16T11:04:38.176Z,3.80
2023-02-16T11:07:11.432Z,3.70
2023-02-16T11:09:43.371Z,3.70
2023-02-16T11:12:30.150Z,3.60
2023-02-16T11:15:04.052Z,3.60
2023-02-16T11:17:35.321Z,3.60
2023-02-16T11:20:10.917Z,3.60
2023-02-16T11:22:42.312Z,3.60
2023-02-16T11:25:27.693Z,3.50
2023-02-16T11:28:02.586Z,3.60
2023-02-16T11:30:35.614Z,3.60
2023-02-16T11:33:08.273Z,3.50
2023-02-16T11:35:47.276Z,3.50
2023-02-16T11:38:32.136Z,3.50
2023-02-16T11:41:04.431Z,3.50
2023-02-16T11:43:40.471Z,3.50
2023-02-16T11:46:17.261Z,3.50
2023-02-16T11:48:47.639Z,3.50
2023-02-16T11:51:31.124Z,3.40
2023-02-16T11:54:05.003Z,3.40
2023-02-16T11:56:36.418Z,3.30
2023-02-16T11:59:14.671Z,3.30
2023-02-16T12:02:05.276Z,3.40
2023-02-16T12:04:53.308Z,3.30
2023-02-16T12:07:35.328Z,3.30
2023-02-16T12:10:12.275Z,3.30
2023-02-16T12:12:53.417Z,3.30
2023-02-16T12:15:35.548Z,3.30
2023-02-16T12:18:21.895Z,3.30
2023-02-16T12:21:00.843Z,3.30
2023-02-16T12:23:44.123Z,3.30
2023-02-16T12:26:42.554Z,3.30
2023-02-16T12:29:29.562Z,3.20
2023-02-16T12:32:26.517Z,3.20
2023-02-16T12:35:10.551Z,3.20
2023-02-16T12:37:48.310Z,3.20
2023-02-16T12:40:28.277Z,3.20
2023-02-16T12:43:32.030Z,3.30
2023-02-16T12:46:07.963Z,3.40
2023-02-16T12:48:43.956Z,3.30
2023-02-16T12:51:19.334Z,3.40
2023-02-16T12:53:57.243Z,3.40
2023-02-16T12:56:33.388Z,3.40
2023-02-16T12:59:22.115Z,3.40
2023-02-16T13:01:54.858Z,3.40
2023-02-16T13:04:41.296Z,3.40
2023-02-16T13:07:28.462Z,3.40
2023-02-16T13:10:03.651Z,3.30
2023-02-16T13:12:39.679Z,3.30
2023-02-16T13:15:16.558Z,3.30
2023-02-16T13:17:51.239Z,3.30
2023-02-16T13:20:25.188Z,3.30
2023-02-16T13:23:24.670Z,3.30
2023-02-16T13:26:18.635Z,3.40
2023-02-16T13:29:09.151Z,3.40
2023-02-16T13:32:10.929Z,3.40
2023-02-16T13:35:09.367Z,3.40
2023-02-16T13:37:59.487Z,3.50
2023-02-16T13:41:13.831Z,3.50
2023-02-16T13:43:55.368Z,3.50
2023-02-16T13:46:30.820Z,3.50
2023-02-16T13:49:02.896Z,3.50
2023-02-16T13:51:44.196Z,3.50
2023-02-16T13:54:29.480Z,3.40
2023-02-16T13:57:01.133Z,3.40
2023-02-16T14:00:42.307Z,3.40
2023-02-16T14:03:15.948Z,3.50
2023-02-16T14:05:48.161Z,3.60
2023-02-16T14:08:24.547Z,3.70
2023-02-16T14:11:12.299Z,3.70
2023-02-16T14:13:51.313Z,3.70
2023-02-16T14:16:35.715Z,3.70
2023-02-16T14:19:21.603Z,3.70
2023-02-16T14:21:52.893Z,3.80
2023-02-16T14:24:35.091Z,3.90
2023-02-16T14:27:09.786Z,3.80
2023-02-16T14:29:41.370Z,3.90
2023-02-16T14:32:26.735Z,3.90
2023-02-16T14:35:00.753Z,4.10
2023-02-16T14:37:39.111Z,4.10
2023-02-16T14:40:24.956Z,4.00
2023-02-16T14:43:00.688Z,3.90
2023-02-16T14:46:02.670Z,3.90
2023-02-16T14:48:57.353Z,3.80
2023-02-16T14:52:07.332Z,3.80
2023-02-16T14:55:01.192Z,3.90
2023-02-16T14:57:36.368Z,4.00
2023-02-16T15:00:23.916Z,4.10
2023-02-16T15:02:59.719Z,4.10
2023-02-16T15:05:33.950Z,4.10
2023-02-16T15:08:14.532Z,4.20
2023-02-16T15:10:47.271Z,4.40
2023-02-16T15:13:22.832Z,4.50
2023-02-16T15:15:58.124Z,4.40
2023-02-16T15:18:32.691Z,4.30
2023-02-16T15:21:03.085Z,4.30
2023-02-16T15:23:35.961Z,4.30
2023-02-16T15:26:08.990Z,4.30
2023-02-16T15:28:41.455Z,4.20
2023-02-16T15:31:19.861Z,4.20
2023-02-16T15:33:59.252Z,4.30
2023-02-16T15:36:35.991Z,4.40
2023-02-16T15:39:10.757Z,4.50
2023-02-16T15:41:43.710Z,4.50
2023-02-16T15:44:34.997Z,4.60
2023-02-16T15:47:15.492Z,4.70
2023-02-16T15:49:46.104Z,4.70
2023-02-16T15:52:19.043Z,4.80
2023-02-16T15:54:51.107Z,4.80
2023-02-16T15:57:32.662Z,4.70
2023-02-16T16:00:05.746Z,4.60
2023-02-16T16:02:40.398Z,4.60
2023-02-16T16:05:22.661Z,4.70
2023-02-16T16:07:53.390Z,4.70
2023-02-16T16:10:28.263Z,4.50
2023-02-16T16:13:02.524Z,4.50
2023-02-16T16:15:43.180Z,4.60
2023-02-16T16:18:40.909Z,4.60
2023-02-16T16:21:21.474Z,4.50
2023-02-16T16:24:03.336Z,4.40
2023-02-16T16:26:37.378Z,4.40
2023-02-16T16:29:30.505Z,4.40
2023-02-16T16:32:01.137Z,4.40
2023-02-16T16:34:37.521Z,4.30
2023-02-16T16:37:09.088Z,4.40
2023-02-16T16:39:41.948Z,4.40
2023-02-16T16:42:20.926Z,4.30
2023-02-16T16:45:00.380Z,4.20
2023-02-16T16:47:34.696Z,4.20
2023-02-16T16:50:31.378Z,4.10
2023-02-16T16:53:03.579Z,4.30
2023-02-16T16:55:36.328Z,4.40
2023-02-16T16:58:08.759Z,4.50
2023-02-16T17:00:42.803Z,4.50
2023-02-16T17:03:18.007Z,4.60
2023-02-16T17:05:48.613Z,4.70
2023-02-16T17:08:20.626Z,4.70
2023-02-16T17:10:51.210Z,4.60
2023-02-16T17:13:23.332Z,4.80
2023-02-16T17:15:57.723Z,4.90
2023-02-16T17:18:27.956Z,4.80
2023-02-16T17:20:58.098Z,4.80
2023-02-16T17:23:30.306Z,4.70
2023-02-16T17:26:00.305Z,4.50
2023-02-16T17:28:34.869Z,4.50
2023-02-16T17:31:05.050Z,4.60
2023-02-16T17:33:35.192Z,4.60
2023-02-16T17:36:06.712Z,4.70
2023-02-16T17:38:38.658Z,4.80
2023-02-16T17:41:08.699Z,4.60
2023-02-16T17:43:38.742Z,4.60
2023-02-16T17:46:08.991Z,4.40
2023-02-16T17:48:39.936Z,4.50
2023-02-16T17:51:15.814Z,4.60
2023-02-16T17:53:48.134Z,4.70
2023-02-16T17:56:21.012Z,4.80
2023-02-16T17:58:51.300Z,4.60
2023-02-16T18:01:22.669Z,4.60
2023-02-16T18:03:53.998Z,4.50
2023-02-16T18:06:28.945Z,4.50
2023-02-16T18:09:01.033Z,4.40
2023-02-16T18:11:32.820Z,4.40
2023-02-16T18:14:05.305Z,4.40
2023-02-16T18:16:36.487Z,4.40
2023-02-16T18:19:09.525Z,4.40
2023-02-16T18:21:39.941Z,4.40
2023-02-16T18:24:11.748Z,4.40
2023-02-16T18:26:41.734Z,4.30
2023-02-16T18:29:12.478Z,4.20
2023-02-16T18:31:42.822Z,4.30
2023-02-16T18:34:13.533Z,4.30
2023-02-16T18:36:44.589Z,4.30
2023-02-16T18:39:18.196Z,4.40
2023-02-16T18:41:48.735Z,4.60
2023-02-16T18:44:19.019Z,4.60
2023-02-16T18:46:49.811Z,4.70
2023-02-16T18:49:19.915Z,4.50
2023-02-16T18:51:50.278Z,4.50
2023-02-16T18:54:23.215Z,4.50
2023-02-16T18:56:55.117Z,4.40
2023-02-16T18:59:25.229Z,4.40
2023-02-16T19:02:00.527Z,4.30
2023-02-16T19:04:32.718Z,4.30
2023-02-16T19:07:03.310Z,4.30
2023-02-16T19:09:36.021Z,4.40
2023-02-16T19:12:07.717Z,4.30
2023-02-16T19:14:38.396Z,4.30
2023-02-16T19:17:08.996Z,4.30
2023-02-16T19:19:41.282Z,4.30
2023-02-16T19:22:11.640Z,4.30
2023-02-16T19:24:43.594Z,4.20
2023-02-16T19:27:13.831Z,4.00
2023-02-16T19:29:53.971Z,4.00
2023-02-16T19:32:24.156Z,3.90
2023-02-16T19:34:54.373Z,3.80
2023-02-16T19:37:24.447Z,3.60
2023-02-16T19:39:56.255Z,3.60
2023-02-16T19:42:26.301Z,3.60
2023-02-16T19:44:56.704Z,3.50
2023-02-16T19:47:26.728Z,3.50
2023-02-16T19:49:56.857Z,3.40
2023-02-16T19:52:26.902Z,3.40
2023-02-16T19:54:58.771Z,3.40
2023-02-16T19:57:28.800Z,3.30
2023-02-16T19:59:58.870Z,3.20
2023-02-16T20:02:28.988Z,3.10
2023-02-16T20:04:59.084Z,3.10
2023-02-16T20:07:29.244Z,3.00
2023-02-16T20:10:01.201Z,2.90
2023-02-16T20:12:32.206Z,2.80
2023-02-16T20:15:02.277Z,2.70
2023-02-16T20:17:32.802Z,2.70
2023-02-16T20:20:02.875Z,2.70
2023-02-16T20:22:33.061Z,2.80
2023-02-16T20:25:04.940Z,2.70
2023-02-16T20:27:34.973Z,2.70
2023-02-16T20:30:06.742Z,2.80
2023-02-16T20:32:37.430Z,2.80
2023-02-16T20:35:09.827Z,2.90
2023-02-16T20:37:39.873Z,2.90
2023-02-16T20:40:12.636Z,3.00
2023-02-16T20:42:43.157Z,2.90
2023-02-16T20:45:13.949Z,2.80
2023-02-16T20:47:43.982Z,2.70
2023-02-16T20:50:14.836Z,2.70
2023-02-16T20:52:45.057Z,2.70
2023-02-16T20:55:23.915Z,2.70
2023-02-16T20:58:15.339Z,2.60
2023-02-16T21:00:46.601Z,2.60
2023-02-16T21:03:16.826Z,2.60
2023-02-16T21:05:47.165Z,2.60
2023-02-16T21:08:17.187Z,2.60
2023-02-16T21:10:48.952Z,2.60
2023-02-16T21:13:19.179Z,2.60
2023-02-16T21:15:49.271Z,2.60
2023-02-16T21:18:19.401Z,2.60
2023-02-16T21:20:49.568Z,2.60
2023-02-16T21:23:19.839Z,2.60
2023-02-16T21:25:51.655Z,2.60
2023-02-16T21:28:22.078Z,2.50
2023-02-16T21:30:52.486Z,2.50
2023-02-16T21:33:22.997Z,2.50
2023-02-16T21:35:53.230Z,2.50
2023-02-16T21:38:23.467Z,2.50
2023-02-16T21:41:11.882Z,2.40
2023-02-16T21:43:41.858Z,2.30
2023-02-16T21:46:13.644Z,2.30
2023-02-16T21:48:50.333Z,2.20
2023-02-16T21:51:24.762Z,2.20
2023-02-16T21:53:55.576Z,2.20
2023-02-16T21:56:34.312Z,2.20
2023-02-16T21:59:05.749Z,2.10
2023-02-16T22:01:38.995Z,2.00
2023-02-16T22:04:09.309Z,2.00
2023-02-16T22:06:42.927Z,1.90
2023-02-16T22:09:14.780Z,1.90
2023-02-16T22:11:47.390Z,1.90
2023-02-16T22:14:17.686Z,1.80
2023-02-16T22:16:49.514Z,1.80
2023-02-16T22:19:21.396Z,1.70
2023-02-16T22:21:52.180Z,1.70
2023-02-16T22:24:23.100Z,1.60
2023-02-16T22:26:54.779Z,1.60
2023-02-16T22:29:24.778Z,1.50
2023-02-16T22:31:55.530Z,1.50
2023-02-16T22:34:25.827Z,1.40
2023-02-16T22:36:55.921Z,1.40
2023-02-16T22:39:26.426Z,1.40
2023-02-16T22:41:58.162Z,1.30
2023-02-16T22:44:28.865Z,1.30
2023-02-16T22:46:59.019Z,1.30
2023-02-16T22:49:29.252Z,1.30
2023-02-16T22:51:59.527Z,1.30
2023-02-16T22:54:29.594Z,1.30
2023-02-16T22:57:01.927Z,1.20
2023-02-16T22:59:31.931Z,1.20
2023-02-16T23:02:02.011Z,1.10
2023-02-16T23:04:32.178Z,1.10
2023-02-16T23:07:02.204Z,1.10
2023-02-16T23:09:32.468Z,1.10
2023-02-16T23:12:04.576Z,1.00
2023-02-16T23:14:37.991Z,1.00
2023-02-16T23:17:08.077Z,1.00
2023-02-16T23:19:38.233Z,1.00
2023-02-16T23:22:08.872Z,1.00
2023-02-16T23:24:39.512Z,1.00
2023-02-16T23:27:11.514Z,1.00
2023-02-16T23:29:41.724Z,0.90
2023-02-16T23:32:12.929Z,0.90
2023-02-16T23:34:42.995Z,0.90
2023-02-16T23:37:13.013Z,0.90
2023-02-16T23:39:43.327Z,0.90
2023-02-16T23:42:15.029Z,0.90
2023-02-16T23:44:45.096Z,0.80
2023-02-16T23:47:15.399Z,0.80
2023-02-16T23:49:45.806Z,0.90
2023-02-16T23:52:15.884Z,0.90
2023-02-16T23:54:46.215Z,1.00
2023-02-16T23:57:18.168Z,0.90
2023-02-16T23:59:48.454Z,0.90
